Time;durP1;ratioP1;P1;durP2;ratioP2;P2;SDS_P1;SDS_P2;PMS_P1;PMS_P2;Temp;Humidity;BMP_temperature;BMP_pressure;BME280_temperature;BME280_humidity;BME280_pressure;Samples;Min_cycle;Max_cycle;Signal;HPM_P1;HPM_P2
2022/03/10 00:01:28;;;;;;;17.35;10.45;;;8.60;67.60;;;;;;5162720;22;20107;-65
2022/03/10 00:03:28;;;;;;;20.30;10.68;;;8.70;67.70;;;;;;5164550;22;20013;-65
2022/03/10 00:05:31;;;;;;;17.35;10.90;;;8.60;64.70;;;;;;5163339;22;20020;-66
2022/03/10 00:07:31;;;;;;;17.98;11.65;;;8.60;69.10;;;;;;5164041;22;20079;-65
2022/03/10 00:09:33;;;;;;;17.25;10.05;;;8.60;66.70;;;;;;5164070;22;20019;-65
2022/03/10 00:11:33;;;;;;;16.50;10.57;;;8.60;68.30;;;;;;5163147;22;20012;-66
2022/03/10 00:13:34;;;;;;;23.58;11.07;;;8.50;65.90;;;;;;5164187;22;20476;-66
2022/03/10 00:15:35;;;;;;;17.00;10.32;;;8.60;66.00;;;;;;5162548;22;20008;-66
2022/03/10 00:17:36;;;;;;;17.88;10.52;;;8.50;66.00;;;;;;5164977;22;20004;-66
2022/03/10 00:19:36;;;;;;;17.25;10.40;;;8.50;67.60;;;;;;5161761;23;20043;-66
2022/03/10 00:21:37;;;;;;;19.13;11.07;;;8.40;64.60;;;;;;5163778;22;20083;-66
2022/03/10 00:23:38;;;;;;;16.75;10.38;;;8.50;67.80;;;;;;5164934;22;20016;-66
2022/03/10 00:25:39;;;;;;;14.90;9.82;;;8.50;70.30;;;;;;5164234;22;20016;-66
2022/03/10 00:27:40;;;;;;;18.30;10.35;;;8.50;68.70;;;;;;5164406;22;20440;-66
2022/03/10 00:29:40;;;;;;;17.20;10.32;;;8.50;71.20;;;;;;5164789;22;20139;-66
2022/03/10 00:31:41;;;;;;;20.55;10.80;;;8.50;67.40;;;;;;5164031;22;20004;-66
2022/03/10 00:33:41;;;;;;;18.90;11.05;;;8.40;66.40;;;;;;5165068;22;20087;-66
2022/03/10 00:35:42;;;;;;;17.95;10.82;;;8.40;66.50;;;;;;5164154;22;20310;-66
2022/03/10 00:37:42;;;;;;;19.17;11.25;;;8.30;64.50;;;;;;5164613;22;20091;-65
2022/03/10 00:39:43;;;;;;;18.60;11.50;;;8.30;65.60;;;;;;5164779;22;20073;-65
2022/03/10 00:41:44;;;;;;;19.60;10.98;;;8.30;67.90;;;;;;5163666;22;20015;-65
2022/03/10 00:43:45;;;;;;;18.40;11.27;;;8.20;64.50;;;;;;5164941;22;20632;-66
2022/03/10 00:45:45;;;;;;;19.17;10.85;;;8.20;65.40;;;;;;5163673;22;20024;-67
2022/03/10 00:47:46;;;;;;;16.17;9.63;;;8.20;68.20;;;;;;5164716;22;20344;-66
2022/03/10 00:49:46;;;;;;;19.27;11.35;;;8.20;67.50;;;;;;5164514;22;20102;-65
2022/03/10 00:51:50;;;;;;;21.58;11.07;;;8.20;72.60;;;;;;5163288;22;20003;-66
2022/03/10 00:53:51;;;;;;;18.10;10.48;;;8.20;66.70;;;;;;5163660;22;20000;-66
2022/03/10 00:55:51;;;;;;;16.70;10.23;;;8.20;68.80;;;;;;5162708;22;20015;-66
2022/03/10 00:57:52;;;;;;;18.00;10.63;;;8.20;71.20;;;;;;5164207;22;20448;-65
2022/03/10 00:59:53;;;;;;;17.23;10.73;;;8.10;65.00;;;;;;5162931;22;20020;-65
2022/03/10 01:01:53;;;;;;;18.05;11.00;;;8.10;65.00;;;;;;5161857;22;20023;-65
2022/03/10 01:03:54;;;;;;;18.67;9.75;;;8.10;68.20;;;;;;5163021;22;20095;-65
2022/03/10 01:05:54;;;;;;;19.92;10.88;;;8.00;64.10;;;;;;5162212;22;20008;-65
2022/03/10 01:07:55;;;;;;;16.60;10.73;;;8.00;67.60;;;;;;5163084;22;20012;-66
2022/03/10 01:09:55;;;;;;;17.65;10.35;;;8.00;68.90;;;;;;5163970;22;20016;-66
2022/03/10 01:11:56;;;;;;;18.75;10.85;;;8.00;67.10;;;;;;5163434;22;20039;-66
2022/03/10 01:13:57;;;;;;;17.35;10.13;;;7.90;64.40;;;;;;5163887;22;20030;-66
2022/03/10 01:15:58;;;;;;;19.83;10.93;;;7.90;66.30;;;;;;5162450;22;20372;-66
2022/03/10 01:17:58;;;;;;;18.98;10.80;;;7.90;63.60;;;;;;5163809;22;20008;-66
2022/03/10 01:19:59;;;;;;;21.67;11.55;;;7.80;64.60;;;;;;5163824;22;20451;-65
2022/03/10 01:21:59;;;;;;;16.30;9.88;;;7.70;63.30;;;;;;5163009;22;20038;-65
2022/03/10 01:24:00;;;;;;;20.25;10.50;;;7.70;64.30;;;;;;5163830;22;20087;-66
2022/03/10 01:26:01;;;;;;;17.08;9.82;;;7.70;66.50;;;;;;5162884;22;20005;-66
2022/03/10 01:28:02;;;;;;;17.75;10.27;;;7.70;67.30;;;;;;5163474;22;20054;-65
2022/03/10 01:30:04;;;;;;;18.70;10.68;;;7.70;67.80;;;;;;5163898;22;20505;-67
2022/03/10 01:32:05;;;;;;;16.23;10.00;;;7.80;67.50;;;;;;5163060;22;20004;-65
2022/03/10 01:34:05;;;;;;;19.67;9.90;;;7.80;67.30;;;;;;5163847;22;20022;-65
2022/03/10 01:36:06;;;;;;;19.30;9.73;;;7.70;68.00;;;;;;5162555;22;20436;-65
2022/03/10 01:38:06;;;;;;;18.30;10.02;;;7.70;65.20;;;;;;5162924;22;20012;-65
2022/03/10 01:40:11;;;;;;;15.82;10.40;;;7.70;63.90;;;;;;5163938;22;20444;-66
2022/03/10 01:42:11;;;;;;;17.30;10.02;;;7.70;68.40;;;;;;5163799;22;20008;-65
2022/03/10 01:44:12;;;;;;;16.92;10.40;;;7.70;65.10;;;;;;5164347;22;20015;-65
2022/03/10 01:46:13;;;;;;;16.42;10.10;;;7.70;67.50;;;;;;5162870;22;20111;-66
2022/03/10 01:48:13;;;;;;;17.17;9.93;;;7.70;71.30;;;;;;5164016;22;20032;-65
2022/03/10 01:50:15;;;;;;;16.75;10.70;;;7.70;71.60;;;;;;5163689;22;20012;-65
2022/03/10 01:52:16;;;;;;;18.05;9.93;;;7.80;69.30;;;;;;5164075;22;20083;-66
2022/03/10 01:54:18;;;;;;;18.17;9.77;;;7.70;66.30;;;;;;5164012;22;20321;-65
2022/03/10 01:56:20;;;;;;;17.05;10.63;;;7.70;67.30;;;;;;5163034;22;20062;-65
2022/03/10 01:58:21;;;;;;;16.00;10.25;;;7.70;70.80;;;;;;5163615;22;20016;-65
2022/03/10 02:00:21;;;;;;;16.92;10.20;;;7.70;68.60;;;;;;5162405;22;20028;-65
2022/03/10 02:02:22;;;;;;;16.75;9.90;;;7.70;68.10;;;;;;5163335;22;20005;-66
2022/03/10 02:04:22;;;;;;;16.10;10.25;;;7.70;69.80;;;;;;5163555;22;20450;-65
2022/03/10 02:06:24;;;;;;;17.58;10.20;;;7.70;66.50;;;;;;5162509;22;20012;-65
2022/03/10 02:10:43;;;;;;;16.58;9.95;;;7.70;69.20;;;;;;5161680;22;20020;-65
2022/03/10 02:12:50;;;;;;;16.55;10.18;;;7.70;67.60;;;;;;5163836;22;20015;-65
2022/03/10 02:17:21;;;;;;;20.40;11.00;;;7.70;70.20;;;;;;5163552;22;20298;-65
2022/03/10 02:19:22;;;;;;;16.55;10.30;;;7.70;70.20;;;;;;5164251;22;20070;-65
2022/03/10 02:21:23;;;;;;;15.27;9.18;;;7.70;70.20;;;;;;5163294;22;20372;-65
2022/03/10 02:23:24;;;;;;;16.60;9.90;;;7.70;70.30;;;;;;5163908;22;20011;-66
2022/03/10 02:25:26;;;;;;;17.17;10.48;;;7.60;69.20;;;;;;5163895;22;20079;-66
2022/03/10 02:27:27;;;;;;;;;;;7.60;67.70;;;;;;5163113;23;20016;-65
2022/03/10 02:29:28;;;;;;;16.38;9.98;;;7.50;65.00;;;;;;5164847;22;20300;-66
2022/03/10 02:31:29;;;;;;;18.80;10.65;;;7.60;69.90;;;;;;5164242;22;20019;-66
2022/03/10 02:33:30;;;;;;;19.17;10.13;;;7.50;69.80;;;;;;5165021;22;20087;-65
2022/03/10 02:35:31;;;;;;;18.35;11.02;;;7.50;69.10;;;;;;5164781;22;20012;-65
2022/03/10 02:37:31;;;;;;;18.70;10.25;;;7.40;66.10;;;;;;5165229;22;20039;-65
2022/03/10 02:39:32;;;;;;;16.27;9.75;;;7.40;69.70;;;;;;5164847;22;20340;-65
2022/03/10 02:41:33;;;;;;;18.50;10.45;;;7.40;66.30;;;;;;5164211;22;20420;-65
2022/03/10 02:43:34;;;;;;;18.15;11.13;;;7.40;68.70;;;;;;5164895;22;20095;-65
2022/03/10 02:45:34;;;;;;;18.48;10.57;;;7.40;68.20;;;;;;5164231;22;20012;-65
2022/03/10 02:47:35;;;;;;;15.85;9.57;;;7.40;69.50;;;;;;5164501;22;20005;-66
2022/03/10 02:49:37;;;;;;;17.00;10.05;;;7.40;70.70;;;;;;5164035;22;20016;-65
2022/03/10 02:51:38;;;;;;;16.58;9.88;;;7.40;71.10;;;;;;5163440;22;20012;-65
2022/03/10 02:53:38;;;;;;;16.13;10.02;;;7.40;73.20;;;;;;5165974;22;20026;-65
2022/03/10 02:55:39;;;;;;;19.20;10.48;;;7.40;72.10;;;;;;5164986;22;20087;-65
2022/03/10 02:57:40;;;;;;;17.63;10.80;;;7.40;72.00;;;;;;5165419;22;20004;-65
2022/03/10 02:59:42;;;;;;;17.08;10.00;;;7.40;73.80;;;;;;5165323;22;20466;-65
2022/03/10 03:01:42;;;;;;;19.23;11.32;;;7.40;74.10;;;;;;5164354;22;20028;-66
2022/03/10 03:03:43;;;;;;;17.30;11.13;;;7.40;75.10;;;;;;5165504;22;20019;-66
2022/03/10 03:05:43;;;;;;;16.63;10.05;;;7.40;75.40;;;;;;5164355;22;20090;-65
2022/03/10 03:07:44;;;;;;;18.30;10.25;;;7.40;72.30;;;;;;5165230;22;20118;-65
2022/03/10 03:09:45;;;;;;;16.75;9.27;;;7.40;73.00;;;;;;5164971;22;20026;-65
2022/03/10 03:11:46;;;;;;;15.57;9.27;;;7.40;72.30;;;;;;5164289;22;20428;-65
2022/03/10 03:13:46;;;;;;;17.52;10.00;;;7.40;72.70;;;;;;5165137;22;20012;-65
2022/03/10 03:15:47;;;;;;;17.65;9.98;;;7.40;74.40;;;;;;5164514;22;20447;-66
2022/03/10 03:17:47;;;;;;;15.45;9.70;;;7.40;74.50;;;;;;5164182;22;20027;-65
2022/03/10 03:19:48;;;;;;;17.17;9.45;;;7.40;75.70;;;;;;5164282;22;20050;-65
2022/03/10 03:21:49;;;;;;;15.35;9.27;;;7.40;75.10;;;;;;5163983;22;20008;-65
2022/03/10 03:23:50;;;;;;;17.27;9.57;;;7.40;74.10;;;;;;5163921;22;20015;-65
2022/03/10 03:25:52;;;;;;;19.13;9.95;;;7.40;74.20;;;;;;5163881;22;20036;-65
2022/03/10 03:27:52;;;;;;;18.00;10.00;;;7.40;74.60;;;;;;5164152;22;20008;-65
2022/03/10 03:29:53;;;;;;;17.33;10.05;;;7.40;75.70;;;;;;5164524;22;20046;-65
2022/03/10 03:31:54;;;;;;;16.73;9.55;;;7.40;77.80;;;;;;5163551;22;20012;-65
2022/03/10 03:33:54;;;;;;;16.77;9.68;;;7.40;76.40;;;;;;5164541;22;20019;-65
2022/03/10 03:35:55;;;;;;;17.30;10.57;;;7.40;77.30;;;;;;5163257;22;20012;-65
2022/03/10 03:37:56;;;;;;;18.77;10.45;;;7.40;78.70;;;;;;5164121;22;20586;-65
2022/03/10 03:39:56;;;;;;;16.05;10.00;;;7.30;77.30;;;;;;5164067;22;20084;-65
2022/03/10 03:41:57;;;;;;;15.77;9.73;;;7.40;77.40;;;;;;5163360;22;20015;-66
2022/03/10 03:43:58;;;;;;;17.92;10.73;;;7.30;77.60;;;;;;5164892;22;21744;-66
2022/03/10 03:45:59;;;;;;;15.75;10.15;;;7.30;80.90;;;;;;5163912;22;20384;-65
2022/03/10 03:47:59;;;;;;;19.75;10.75;;;7.30;80.50;;;;;;5164605;22;20050;-65
2022/03/10 03:50:00;;;;;;;22.13;11.93;;;7.20;74.40;;;;;;5164414;22;20066;-65
2022/03/10 03:52:01;;;;;;;23.20;10.90;;;7.20;73.30;;;;;;5163559;22;20095;-65
2022/03/10 03:54:02;;;;;;;17.38;10.07;;;7.20;76.00;;;;;;5164228;22;20043;-66
2022/03/10 03:56:03;;;;;;;19.15;10.80;;;7.20;75.80;;;;;;5163710;22;20424;-65
2022/03/10 03:58:03;;;;;;;19.25;11.80;;;7.10;73.30;;;;;;5164896;22;20008;-66
2022/03/10 04:00:06;;;;;;;19.40;11.50;;;7.10;76.80;;;;;;5163776;22;20411;-67
2022/03/10 04:02:06;;;;;;;18.83;10.57;;;7.10;73.60;;;;;;5163434;22;20343;-65
2022/03/10 04:04:07;;;;;;;19.35;11.07;;;7.10;79.00;;;;;;5164622;22;20012;-66
2022/03/10 04:06:07;;;;;;;18.55;11.32;;;7.10;79.10;;;;;;5163562;22;20466;-65
2022/03/10 04:08:08;;;;;;;17.10;10.13;;;7.10;79.20;;;;;;5163978;22;20027;-65
2022/03/10 04:10:09;;;;;;;19.85;11.20;;;7.10;81.30;;;;;;5163238;22;20012;-66
2022/03/10 04:12:09;;;;;;;19.40;10.63;;;7.10;81.50;;;;;;5164970;22;20016;-65
2022/03/10 04:14:11;;;;;;;16.90;10.60;;;7.10;80.40;;;;;;5165592;22;20115;-66
2022/03/10 04:16:11;;;;;;;21.13;11.93;;;7.10;79.00;;;;;;5164351;22;20044;-66
2022/03/10 04:18:12;;;;;;;23.45;12.68;;;7.00;78.00;;;;;;5164990;22;20013;-66
2022/03/10 04:20:13;;;;;;;19.77;11.50;;;6.90;73.40;;;;;;5164297;22;20043;-65
2022/03/10 04:22:14;;;;;;;22.75;11.05;;;6.90;73.10;;;;;;5164691;22;20008;-65
2022/03/10 04:24:14;;;;;;;18.52;11.10;;;6.90;75.10;;;;;;5163919;22;20377;-65
2022/03/10 04:26:15;;;;;;;18.27;10.75;;;6.90;79.90;;;;;;5163899;22;20012;-65
2022/03/10 04:28:15;;;;;;;19.02;11.38;;;6.90;79.00;;;;;;5164733;22;20004;-65
2022/03/10 04:30:17;;;;;;;20.08;11.27;;;6.90;79.20;;;;;;5163855;22;20011;-65
2022/03/10 04:32:18;;;;;;;21.52;11.50;;;7.00;82.90;;;;;;5164612;22;20062;-65
2022/03/10 04:34:18;;;;;;;18.23;11.15;;;7.00;82.70;;;;;;5162035;23;20004;-65
2022/03/10 04:36:19;;;;;;;21.85;11.80;;;6.90;83.20;;;;;;5163721;22;20005;-65
2022/03/10 04:38:20;;;;;;;23.33;11.30;;;6.90;80.60;;;;;;5164161;22;20012;-65
2022/03/10 04:40:21;;;;;;;19.58;10.77;;;6.90;81.90;;;;;;5163703;22;20024;-65
2022/03/10 04:42:22;;;;;;;19.42;11.55;;;7.00;83.10;;;;;;5164184;22;20014;-65
2022/03/10 04:44:22;;;;;;;21.33;11.13;;;6.90;82.60;;;;;;5164138;22;20016;-65
2022/03/10 04:46:23;;;;;;;20.50;11.88;;;6.90;83.50;;;;;;5163430;22;20396;-65
2022/03/10 04:48:24;;;;;;;21.85;11.45;;;6.90;82.90;;;;;;5161888;23;20083;-65
2022/03/10 04:50:24;;;;;;;18.35;10.80;;;6.90;83.60;;;;;;5163147;22;20476;-65
2022/03/10 04:52:26;;;;;;;22.23;11.90;;;6.90;85.00;;;;;;5163875;22;20008;-66
2022/03/10 04:54:27;;;;;;;22.08;11.98;;;6.90;81.20;;;;;;5163689;22;20016;-66
2022/03/10 04:56:28;;;;;;;19.63;11.07;;;6.90;84.70;;;;;;5162755;22;20008;-65
2022/03/10 04:58:28;;;;;;;21.13;11.85;;;6.90;85.10;;;;;;5164858;22;20372;-65
2022/03/10 05:00:29;;;;;;;20.50;11.77;;;6.90;84.50;;;;;;5163223;22;20053;-65
2022/03/10 05:02:30;;;;;;;20.17;11.80;;;6.80;82.50;;;;;;5163535;22;20000;-65
2022/03/10 05:04:30;;;;;;;20.67;11.13;;;6.80;83.70;;;;;;5164242;22;20293;-65
2022/03/10 05:06:31;;;;;;;20.83;11.63;;;6.80;85.60;;;;;;5163574;22;20027;-65
2022/03/10 05:08:33;;;;;;;21.10;11.88;;;6.80;82.80;;;;;;5164073;22;20016;-65
2022/03/10 05:10:33;;;;;;;23.73;12.23;;;6.80;85.70;;;;;;5163112;22;20444;-65
2022/03/10 05:12:42;;;;;;;25.67;12.20;;;6.80;83.00;;;;;;5164099;22;20011;-65
2022/03/10 05:14:42;;;;;;;24.65;12.77;;;6.70;81.00;;;;;;5162901;22;20012;-65
2022/03/10 05:16:43;;;;;;;20.45;12.00;;;6.80;82.10;;;;;;5163907;22;20099;-65
2022/03/10 05:18:45;;;;;;;19.80;11.93;;;6.70;84.60;;;;;;5163357;22;20332;-66
2022/03/10 05:20:46;;;;;;;21.48;11.88;;;6.80;82.90;;;;;;5160368;22;20027;-65
2022/03/10 05:22:49;;;;;;;22.13;12.88;;;6.80;84.20;;;;;;5161853;22;20004;-65
2022/03/10 05:24:50;;;;;;;21.00;11.13;;;6.80;83.90;;;;;;5162277;22;20012;-66
2022/03/10 05:26:50;;;;;;;19.05;11.20;;;6.80;84.00;;;;;;5161669;22;20019;-65
2022/03/10 05:28:51;;;;;;;22.98;12.15;;;6.80;86.10;;;;;;5162934;22;20495;-65
2022/03/10 05:30:51;;;;;;;20.67;11.80;;;6.70;84.70;;;;;;5160985;22;20742;-65
2022/03/10 05:32:52;;;;;;;20.52;12.20;;;6.70;87.80;;;;;;5162233;22;20390;-65
2022/03/10 05:34:54;;;;;;;19.83;11.82;;;6.70;86.30;;;;;;5161928;22;20004;-65
2022/03/10 05:36:55;;;;;;;18.55;11.27;;;6.70;90.00;;;;;;5159284;23;20012;-65
2022/03/10 05:38:56;;;;;;;22.48;11.88;;;6.70;90.60;;;;;;5162449;22;20383;-65
2022/03/10 05:40:56;;;;;;;21.45;11.88;;;6.70;90.00;;;;;;5160916;22;20089;-65
2022/03/10 05:42:57;;;;;;;21.67;12.80;;;6.70;87.80;;;;;;5161561;22;20020;-65
2022/03/10 05:44:58;;;;;;;20.80;11.88;;;6.60;87.40;;;;;;5162077;22;20016;-65
2022/03/10 05:46:59;;;;;;;20.83;11.63;;;6.60;88.50;;;;;;5160716;22;20005;-66
2022/03/10 05:48:59;;;;;;;20.98;11.70;;;6.60;88.50;;;;;;5161623;22;20301;-66
2022/03/10 05:51:00;;;;;;;23.77;12.20;;;6.60;86.40;;;;;;5161541;22;20016;-65
2022/03/10 05:53:03;;;;;;;26.08;12.40;;;6.60;87.80;;;;;;5163875;22;20036;-65
2022/03/10 05:55:05;;;;;;;18.20;11.23;;;6.60;86.20;;;;;;5163686;22;20012;-66
2022/03/10 05:57:06;;;;;;;20.50;11.77;;;6.60;88.30;;;;;;5163408;22;20035;-65
2022/03/10 05:59:06;;;;;;;20.08;11.40;;;6.60;87.00;;;;;;5163659;22;20004;-65
2022/03/10 06:01:07;;;;;;;20.63;11.02;;;6.50;87.60;;;;;;5161403;22;20426;-65
2022/03/10 06:03:08;;;;;;;23.98;12.52;;;6.50;87.90;;;;;;5163437;22;20076;-65
2022/03/10 06:05:09;;;;;;;21.33;11.73;;;6.50;88.40;;;;;;5162626;22;20062;-66
2022/03/10 06:07:10;;;;;;;19.95;11.20;;;6.50;88.40;;;;;;5162810;22;20375;-65
2022/03/10 06:09:11;;;;;;;17.05;10.25;;;6.50;87.60;;;;;;5164986;22;20008;-66
2022/03/10 06:11:12;;;;;;;21.90;11.40;;;6.50;88.40;;;;;;5163642;22;20451;-66
2022/03/10 06:13:12;;;;;;;20.20;12.35;;;6.50;86.90;;;;;;5164655;22;20016;-65
2022/03/10 06:15:13;;;;;;;21.60;12.07;;;6.50;90.70;;;;;;5163072;22;20020;-65
2022/03/10 06:17:14;;;;;;;22.10;11.60;;;6.50;90.60;;;;;;5164668;22;20008;-65
2022/03/10 06:19:14;;;;;;;25.13;12.60;;;6.50;92.10;;;;;;5163853;22;20008;-66
2022/03/10 06:21:15;;;;;;;20.08;11.52;;;6.40;90.20;;;;;;5163167;22;20363;-65
2022/03/10 06:23:16;;;;;;;19.67;11.57;;;6.40;90.60;;;;;;5160514;23;20082;-64
2022/03/10 06:25:16;;;;;;;22.80;12.93;;;6.40;90.00;;;;;;5162658;22;20016;-64
2022/03/10 06:27:18;;;;;;;21.40;11.43;;;6.40;87.80;;;;;;5162375;22;20216;-65
2022/03/10 06:29:19;;;;;;;18.83;11.67;;;6.40;91.30;;;;;;5163863;22;20096;-64
2022/03/10 06:31:19;;;;;;;20.10;11.15;;;6.30;86.60;;;;;;5159743;23;20227;-63
2022/03/10 06:33:20;;;;;;;22.00;11.48;;;6.30;91.80;;;;;;5163879;22;20015;-64
2022/03/10 06:35:21;;;;;;;23.15;11.93;;;6.40;90.00;;;;;;5162317;22;20449;-64
2022/03/10 06:37:22;;;;;;;20.85;11.63;;;6.30;88.50;;;;;;5163851;22;20019;-64
2022/03/10 06:39:22;;;;;;;20.42;11.68;;;6.30;83.70;;;;;;5163055;22;20089;-64
2022/03/10 06:41:23;;;;;;;20.80;12.30;;;6.30;91.60;;;;;;5161966;22;20375;-64
2022/03/10 06:43:24;;;;;;;20.63;12.63;;;6.30;86.60;;;;;;5163011;22;20016;-64
2022/03/10 06:45:24;;;;;;;21.52;11.68;;;6.30;89.80;;;;;;5159926;22;20082;-65
2022/03/10 06:47:25;;;;;;;24.60;13.10;;;6.30;90.40;;;;;;5160513;22;20337;-62
2022/03/10 06:49:26;;;;;;;25.45;12.52;;;6.30;89.80;;;;;;5162198;22;20074;-63
2022/03/10 06:51:26;;;;;;;23.55;12.90;;;6.40;93.20;;;;;;5162039;22;20031;-64
2022/03/10 06:53:27;;;;;;;26.98;14.15;;;6.40;91.60;;;;;;5163011;22;20391;-64
2022/03/10 06:55:28;;;;;;;28.42;13.27;;;6.50;90.70;;;;;;5161882;22;20019;-64
2022/03/10 06:57:28;;;;;;;24.08;13.02;;;6.50;88.70;;;;;;5163249;22;20091;-64
2022/03/10 06:59:29;;;;;;;20.48;11.68;;;6.50;89.40;;;;;;5163425;22;20015;-64
2022/03/10 07:01:30;;;;;;;21.75;12.85;;;6.60;90.80;;;;;;5161333;22;20024;-64
2022/03/10 07:03:31;;;;;;;23.00;12.45;;;6.60;87.60;;;;;;5163213;22;20012;-65
2022/03/10 07:05:32;;;;;;;26.85;13.90;;;6.80;86.90;;;;;;5162716;22;20103;-65
2022/03/10 07:07:32;;;;;;;28.10;12.93;;;7.00;87.20;;;;;;5162955;22;20015;-65
2022/03/10 07:09:33;;;;;;;22.27;12.68;;;7.20;85.50;;;;;;5163351;22;20440;-64
2022/03/10 07:11:33;;;;;;;27.40;14.75;;;7.40;81.80;;;;;;5162283;22;20012;-65
2022/03/10 07:13:36;;;;;;;22.02;12.57;;;7.60;77.90;;;;;;5163398;22;20008;-65
2022/03/10 07:15:36;;;;;;;21.52;11.93;;;7.80;80.00;;;;;;5162076;22;20017;-65
2022/03/10 07:17:38;;;;;;;20.60;12.60;;;8.10;77.20;;;;;;5163039;22;20340;-65
2022/03/10 07:19:39;;;;;;;24.43;11.87;;;8.10;74.00;;;;;;5160738;23;20070;-65
2022/03/10 07:21:40;;;;;;;22.70;12.82;;;8.40;75.80;;;;;;5155136;22;20227;-65
2022/03/10 07:23:40;;;;;;;23.23;12.60;;;8.50;72.50;;;;;;5161893;22;20013;-65
2022/03/10 07:25:42;;;;;;;22.92;11.52;;;8.80;73.40;;;;;;5160898;22;20032;-66
2022/03/10 07:27:43;;;;;;;25.27;13.32;;;8.90;71.00;;;;;;5163496;22;20012;-65
2022/03/10 07:29:44;;;;;;;19.98;11.88;;;9.00;72.20;;;;;;5163896;22;20019;-65
2022/03/10 07:31:44;;;;;;;26.27;12.95;;;9.20;73.10;;;;;;5161511;22;20069;-65
2022/03/10 07:33:45;;;;;;;23.02;12.48;;;9.40;69.20;;;;;;5163232;22;20008;-65
2022/03/10 07:35:45;;;;;;;23.30;12.88;;;9.60;68.70;;;;;;5162129;22;20004;-65
2022/03/10 07:37:48;;;;;;;23.73;11.90;;;9.70;66.60;;;;;;5162506;22;20020;-65
2022/03/10 07:39:48;;;;;;;20.73;12.05;;;10.00;66.70;;;;;;5163442;22;20024;-65
2022/03/10 07:41:49;;;;;;;22.02;12.57;;;10.30;69.10;;;;;;5158065;22;20357;-65
2022/03/10 07:43:50;;;;;;;19.30;11.60;;;10.40;64.50;;;;;;5162972;22;20129;-65
2022/03/10 07:45:50;;;;;;;22.27;12.38;;;10.50;65.30;;;;;;5162247;22;20393;-65
2022/03/10 07:47:52;;;;;;;20.77;11.68;;;10.70;63.80;;;;;;5159532;22;20075;-65
2022/03/10 07:49:53;;;;;;;26.67;12.82;;;11.00;66.30;;;;;;5160022;22;20034;-65
2022/03/10 07:51:53;;;;;;;21.20;12.65;;;11.10;61.50;;;;;;5159448;22;20198;-65
2022/03/10 07:53:54;;;;;;;20.33;12.32;;;11.20;59.80;;;;;;5163031;22;20020;-65
2022/03/10 07:55:56;;;;;;;17.42;11.85;;;11.40;60.50;;;;;;5161737;22;20020;-65
2022/03/10 07:57:57;;;;;;;19.85;12.00;;;11.50;61.40;;;;;;5159126;22;20047;-65
2022/03/10 07:59:57;;;;;;;17.63;10.93;;;11.60;59.00;;;;;;5162765;22;20016;-65
2022/03/10 08:01:58;;;;;;;17.75;11.23;;;11.70;59.30;;;;;;5161468;22;20348;-65
2022/03/10 08:03:58;;;;;;;18.67;10.88;;;12.00;60.30;;;;;;5162481;22;20012;-65
2022/03/10 08:05:59;;;;;;;20.50;11.73;;;12.20;60.90;;;;;;5161741;22;20016;-65
2022/03/10 08:08:01;;;;;;;21.50;12.13;;;12.40;58.50;;;;;;5162767;22;20640;-65
2022/03/10 08:10:04;;;;;;;18.90;11.73;;;12.60;57.00;;;;;;5161711;22;20456;-66
2022/03/10 08:12:05;;;;;;;19.42;12.43;;;12.80;56.70;;;;;;5161243;22;20091;-66
2022/03/10 08:14:06;;;;;;;15.98;10.32;;;13.10;56.40;;;;;;5162348;22;20004;-66
2022/03/10 08:16:06;;;;;;;20.38;11.80;;;13.40;57.20;;;;;;5162355;22;20036;-65
2022/03/10 08:18:07;;;;;;;19.42;10.73;;;13.20;54.70;;;;;;5162818;22;20058;-65
2022/03/10 08:20:09;;;;;;;16.45;10.90;;;13.40;57.40;;;;;;5159686;23;20372;-67
2022/03/10 08:22:09;;;;;;;19.13;10.75;;;13.60;55.70;;;;;;5162151;22;20432;-66
2022/03/10 08:24:10;;;;;;;18.45;11.23;;;13.70;54.90;;;;;;5162706;22;20023;-66
2022/03/10 08:26:10;;;;;;;16.42;10.85;;;13.60;53.20;;;;;;5161702;22;20055;-66
2022/03/10 08:28:12;;;;;;;16.83;11.10;;;13.70;53.40;;;;;;5161830;22;20012;-65
2022/03/10 08:30:13;;;;;;;21.42;10.88;;;13.90;52.70;;;;;;5162379;22;20012;-65
2022/03/10 08:32:15;;;;;;;16.70;10.75;;;13.80;53.30;;;;;;5162236;22;20050;-66
2022/03/10 08:34:16;;;;;;;17.27;10.88;;;13.60;53.30;;;;;;5160027;23;20008;-66
2022/03/10 08:36:18;;;;;;;19.60;11.23;;;13.60;53.20;;;;;;5161499;22;20020;-66
2022/03/10 08:38:19;;;;;;;18.30;11.02;;;13.70;53.20;;;;;;5162825;22;20001;-65
2022/03/10 08:40:20;;;;;;;19.83;11.43;;;13.70;54.10;;;;;;5161909;22;20475;-66
2022/03/10 08:42:20;;;;;;;21.67;11.15;;;13.60;53.00;;;;;;5162670;22;20046;-65
2022/03/10 08:44:22;;;;;;;16.80;10.82;;;13.40;53.60;;;;;;5163068;22;20016;-65
2022/03/10 08:46:22;;;;;;;25.55;12.43;;;13.50;54.80;;;;;;5162045;22;20031;-66
2022/03/10 08:48:24;;;;;;;16.77;11.00;;;13.40;52.70;;;;;;5159786;23;20102;-65
2022/03/10 08:50:25;;;;;;;19.27;11.23;;;13.50;53.50;;;;;;5161454;22;20011;-65
2022/03/10 08:52:26;;;;;;;18.05;11.30;;;13.50;53.70;;;;;;5162414;22;20015;-65
2022/03/10 08:54:26;;;;;;;16.42;11.13;;;13.30;52.40;;;;;;5162542;22;20455;-66
2022/03/10 08:56:27;;;;;;;19.27;11.15;;;13.20;53.40;;;;;;5161723;22;20012;-65
2022/03/10 08:58:27;;;;;;;19.27;11.55;;;13.20;53.40;;;;;;5160130;23;20390;-66
2022/03/10 09:00:28;;;;;;;19.13;13.05;;;13.30;53.40;;;;;;5160863;22;20028;-65
2022/03/10 09:02:30;;;;;;;19.25;11.80;;;13.20;52.20;;;;;;5162012;22;20073;-66
2022/03/10 09:04:30;;;;;;;19.92;11.90;;;13.30;52.80;;;;;;5162224;22;20444;-65
2022/03/10 09:06:32;;;;;;;20.02;12.68;;;13.10;52.80;;;;;;5160663;22;20012;-65
2022/03/10 09:08:33;;;;;;;18.02;11.98;;;13.10;53.20;;;;;;5162681;22;20016;-66
2022/03/10 09:10:34;;;;;;;19.75;12.18;;;13.00;52.60;;;;;;5161445;22;20023;-65
2022/03/10 09:12:35;;;;;;;18.80;12.18;;;12.90;52.50;;;;;;5162634;22;20479;-66
2022/03/10 09:14:36;;;;;;;20.52;12.35;;;12.90;52.40;;;;;;5162714;22;20062;-67
2022/03/10 09:16:36;;;;;;;19.77;12.73;;;13.00;53.90;;;;;;5161554;22;20465;-65
2022/03/10 09:18:37;;;;;;;21.95;12.82;;;13.00;52.90;;;;;;5162417;22;20316;-65
2022/03/10 09:20:38;;;;;;;22.80;12.60;;;13.00;54.00;;;;;;5161334;22;20020;-65
2022/03/10 09:22:39;;;;;;;20.35;12.15;;;13.00;52.90;;;;;;5162245;22;20467;-65
2022/03/10 09:24:39;;;;;;;21.45;13.10;;;13.10;54.30;;;;;;5162070;22;20008;-66
2022/03/10 09:26:40;;;;;;;21.33;13.95;;;13.20;53.40;;;;;;5162508;22;20035;-65
2022/03/10 09:28:42;;;;;;;21.45;13.00;;;13.00;52.70;;;;;;5163638;22;20008;-65
2022/03/10 09:30:42;;;;;;;23.25;14.55;;;13.20;54.10;;;;;;5161876;22;20011;-65
2022/03/10 09:32:44;;;;;;;24.92;13.30;;;13.00;52.40;;;;;;5163589;22;20467;-65
2022/03/10 09:34:44;;;;;;;23.00;14.32;;;12.90;52.40;;;;;;5164615;22;20012;-65
2022/03/10 09:36:45;;;;;;;21.73;13.02;;;12.90;53.50;;;;;;5164195;22;20020;-66
2022/03/10 09:38:46;;;;;;;20.17;12.70;;;12.90;53.10;;;;;;5164781;22;20325;-65
2022/03/10 09:40:52;;;;;;;23.45;14.07;;;13.00;56.10;;;;;;5161326;23;20016;-65
2022/03/10 09:42:53;;;;;;;23.23;13.77;;;13.00;53.00;;;;;;5148213;22;20078;-65
2022/03/10 09:44:59;;;;;;;25.63;13.88;;;13.10;53.60;;;;;;5164161;22;20118;-65
2022/03/10 09:47:03;;;;;;;23.30;13.27;;;13.20;53.10;;;;;;5163736;22;20104;-65
2022/03/10 09:49:04;;;;;;;22.73;13.65;;;13.20;54.50;;;;;;5163404;22;20289;-65
2022/03/10 09:51:05;;;;;;;22.88;13.98;;;13.20;54.40;;;;;;5163631;22;20008;-66
2022/03/10 09:53:06;;;;;;;23.65;13.77;;;13.40;53.80;;;;;;5163527;22;20008;-66
2022/03/10 09:55:07;;;;;;;23.25;13.85;;;13.50;55.20;;;;;;5163286;22;20019;-65
2022/03/10 09:57:09;;;;;;;23.58;13.77;;;13.60;53.90;;;;;;5163433;22;20332;-66
2022/03/10 09:59:12;;;;;;;24.40;14.00;;;13.70;53.10;;;;;;5164227;22;20014;-66
2022/03/10 10:01:12;;;;;;;;;;;13.60;53.30;;;;;;5162796;22;20874;-65
2022/03/10 10:03:13;;;;;;;26.10;14.70;;;13.60;53.10;;;;;;5162743;22;19904;-66
2022/03/10 10:05:28;;;;;;;24.50;14.15;;;13.60;53.20;;;;;;5164252;22;20335;-65
2022/03/10 10:07:29;;;;;;;28.45;14.75;;;13.80;53.50;;;;;;5163883;22;20036;-65
2022/03/10 10:09:45;;;;;;;23.60;13.80;;;13.70;52.40;;;;;;5164373;22;20020;-65
2022/03/10 10:11:45;;;;;;;29.42;15.93;;;13.80;53.50;;;;;;5162109;22;20012;-65
2022/03/10 10:13:48;;;;;;;25.33;14.57;;;13.70;52.20;;;;;;5163265;22;20009;-65
2022/03/10 10:16:13;;;;;;;24.75;13.82;;;13.70;52.40;;;;;;5162432;22;20091;-66
2022/03/10 10:18:15;;;;;;;25.48;14.68;;;13.80;53.20;;;;;;5162793;22;20341;-65
2022/03/10 10:20:15;;;;;;;25.88;14.88;;;13.80;52.90;;;;;;5163473;22;20436;-65
2022/03/10 10:22:20;;;;;;;27.85;15.43;;;13.90;53.20;;;;;;5164684;22;20058;-66
2022/03/10 10:24:20;;;;;;;26.38;14.90;;;14.00;53.00;;;;;;5164341;22;20004;-65
2022/03/10 10:26:26;;;;;;;20.90;13.25;;;13.90;52.60;;;;;;5163381;22;20385;-66